sensor_id;sensor_type;location;lat;lon;timestamp;P1;durP1;ratioP1;P2;durP2;ratioP2
10667;SDS011;5382;42.136;24.796;2023-07-31T00:01:16;2.97;;;1.38;;
10667;SDS011;5382;42.136;24.796;2023-07-31T00:03:42;1.52;;;1.02;;
10667;SDS011;5382;42.136;24.796;2023-07-31T00:06:09;2.08;;;1.08;;
10667;SDS011;5382;42.136;24.796;2023-07-31T00:08:37;2.03;;;1.20;;
10667;SDS011;5382;42.136;24.796;2023-07-31T00:11:04;1.40;;;1.00;;
10667;SDS011;5382;42.136;24.796;2023-07-31T00:13:31;0.93;;;0.88;;
10667;SDS011;5382;42.136;24.796;2023-07-31T00:15:58;1.20;;;1.10;;
10667;SDS011;5382;42.136;24.796;2023-07-31T00:18:25;2.28;;;1.45;;
10667;SDS011;5382;42.136;24.796;2023-07-31T00:20:52;1.90;;;1.00;;
10667;SDS011;5382;42.136;24.796;2023-07-31T00:23:19;1.73;;;1.20;;
10667;SDS011;5382;42.136;24.796;2023-07-31T00:25:47;1.75;;;1.05;;
10667;SDS011;5382;42.136;24.796;2023-07-31T00:28:14;4.28;;;1.30;;
10667;SDS011;5382;42.136;24.796;2023-07-31T00:30:41;5.40;;;1.38;;
10667;SDS011;5382;42.136;24.796;2023-07-31T00:33:08;1.30;;;1.20;;
10667;SDS011;5382;42.136;24.796;2023-07-31T00:35:34;3.50;;;1.60;;
10667;SDS011;5382;42.136;24.796;2023-07-31T00:38:01;2.58;;;1.30;;
10667;SDS011;5382;42.136;24.796;2023-07-31T00:40:28;2.70;;;1.05;;
10667;SDS011;5382;42.136;24.796;2023-07-31T00:42:56;3.25;;;1.50;;
10667;SDS011;5382;42.136;24.796;2023-07-31T00:45:23;2.17;;;1.10;;
10667;SDS011;5382;42.136;24.796;2023-07-31T00:47:52;1.65;;;1.08;;
10667;SDS011;5382;42.136;24.796;2023-07-31T00:50:19;2.10;;;1.10;;
10667;SDS011;5382;42.136;24.796;2023-07-31T00:52:46;2.35;;;1.30;;
10667;SDS011;5382;42.136;24.796;2023-07-31T00:55:13;1.73;;;1.30;;
10667;SDS011;5382;42.136;24.796;2023-07-31T00:57:40;3.45;;;1.20;;
10667;SDS011;5382;42.136;24.796;2023-07-31T01:00:10;1.77;;;1.40;;
10667;SDS011;5382;42.136;24.796;2023-07-31T01:02:37;2.20;;;1.30;;
10667;SDS011;5382;42.136;24.796;2023-07-31T01:05:04;4.03;;;1.00;;
10667;SDS011;5382;42.136;24.796;2023-07-31T01:07:35;1.17;;;1.08;;
10667;SDS011;5382;42.136;24.796;2023-07-31T01:10:08;2.47;;;1.50;;
10667;SDS011;5382;42.136;24.796;2023-07-31T01:12:41;1.90;;;1.42;;
10667;SDS011;5382;42.136;24.796;2023-07-31T01:15:13;2.67;;;1.38;;
10667;SDS011;5382;42.136;24.796;2023-07-31T01:17:42;2.33;;;1.30;;
10667;SDS011;5382;42.136;24.796;2023-07-31T01:20:10;2.50;;;1.05;;
10667;SDS011;5382;42.136;24.796;2023-07-31T01:25:50;2.08;;;1.40;;
10667;SDS011;5382;42.136;24.796;2023-07-31T01:28:23;2.65;;;1.60;;
10667;SDS011;5382;42.136;24.796;2023-07-31T01:30:54;3.38;;;1.67;;
10667;SDS011;5382;42.136;24.796;2023-07-31T01:33:22;2.70;;;1.80;;
10667;SDS011;5382;42.136;24.796;2023-07-31T01:35:49;2.95;;;1.98;;
10667;SDS011;5382;42.136;24.796;2023-07-31T01:38:20;2.83;;;2.28;;
10667;SDS011;5382;42.136;24.796;2023-07-31T01:40:51;3.28;;;2.30;;
10667;SDS011;5382;42.136;24.796;2023-07-31T01:43:19;5.18;;;2.00;;
10667;SDS011;5382;42.136;24.796;2023-07-31T01:45:46;3.22;;;2.42;;
10667;SDS011;5382;42.136;24.796;2023-07-31T01:48:13;4.15;;;2.65;;
10667;SDS011;5382;42.136;24.796;2023-07-31T01:50:40;3.75;;;2.47;;
10667;SDS011;5382;42.136;24.796;2023-07-31T01:53:07;13.00;;;4.03;;
10667;SDS011;5382;42.136;24.796;2023-07-31T01:55:33;2.65;;;2.10;;
10667;SDS011;5382;42.136;24.796;2023-07-31T01:58:02;4.18;;;2.30;;
10667;SDS011;5382;42.136;24.796;2023-07-31T02:00:28;4.43;;;2.40;;
10667;SDS011;5382;42.136;24.796;2023-07-31T02:02:55;6.35;;;2.60;;
10667;SDS011;5382;42.136;24.796;2023-07-31T02:05:22;6.18;;;2.78;;
10667;SDS011;5382;42.136;24.796;2023-07-31T02:07:49;4.32;;;2.60;;
10667;SDS011;5382;42.136;24.796;2023-07-31T02:10:16;4.65;;;2.60;;
10667;SDS011;5382;42.136;24.796;2023-07-31T02:12:42;6.35;;;2.67;;
10667;SDS011;5382;42.136;24.796;2023-07-31T02:15:11;4.30;;;2.65;;
10667;SDS011;5382;42.136;24.796;2023-07-31T02:17:37;3.83;;;2.83;;
10667;SDS011;5382;42.136;24.796;2023-07-31T02:20:05;4.95;;;2.42;;
10667;SDS011;5382;42.136;24.796;2023-07-31T02:22:32;5.35;;;2.50;;
10667;SDS011;5382;42.136;24.796;2023-07-31T02:24:59;7.28;;;3.22;;
10667;SDS011;5382;42.136;24.796;2023-07-31T02:27:26;6.15;;;3.50;;
10667;SDS011;5382;42.136;24.796;2023-07-31T02:29:53;6.95;;;3.55;;
10667;SDS011;5382;42.136;24.796;2023-07-31T02:32:21;4.13;;;3.33;;
10667;SDS011;5382;42.136;24.796;2023-07-31T02:34:49;4.93;;;3.28;;
10667;SDS011;5382;42.136;24.796;2023-07-31T02:37:16;4.32;;;2.85;;
10667;SDS011;5382;42.136;24.796;2023-07-31T02:39:43;5.28;;;2.90;;
10667;SDS011;5382;42.136;24.796;2023-07-31T02:42:09;5.53;;;2.65;;
10667;SDS011;5382;42.136;24.796;2023-07-31T02:44:36;5.45;;;3.03;;
10667;SDS011;5382;42.136;24.796;2023-07-31T02:47:03;3.78;;;2.47;;
10667;SDS011;5382;42.136;24.796;2023-07-31T02:49:31;3.00;;;2.70;;
10667;SDS011;5382;42.136;24.796;2023-07-31T02:51:58;4.50;;;2.75;;
10667;SDS011;5382;42.136;24.796;2023-07-31T02:54:25;4.18;;;2.55;;
10667;SDS011;5382;42.136;24.796;2023-07-31T02:56:52;3.05;;;2.45;;
10667;SDS011;5382;42.136;24.796;2023-07-31T02:59:19;6.90;;;3.05;;
10667;SDS011;5382;42.136;24.796;2023-07-31T03:01:46;5.72;;;3.13;;
10667;SDS011;5382;42.136;24.796;2023-07-31T03:04:13;6.70;;;3.50;;
10667;SDS011;5382;42.136;24.796;2023-07-31T03:06:41;3.90;;;2.65;;
10667;SDS011;5382;42.136;24.796;2023-07-31T03:09:08;4.47;;;2.88;;
10667;SDS011;5382;42.136;24.796;2023-07-31T03:11:35;4.45;;;2.97;;
10667;SDS011;5382;42.136;24.796;2023-07-31T03:14:02;3.20;;;2.85;;
10667;SDS011;5382;42.136;24.796;2023-07-31T03:16:29;3.72;;;3.10;;
10667;SDS011;5382;42.136;24.796;2023-07-31T03:18:55;5.97;;;3.33;;
10667;SDS011;5382;42.136;24.796;2023-07-31T03:21:23;16.10;;;11.35;;
10667;SDS011;5382;42.136;24.796;2023-07-31T03:23:51;4.07;;;3.67;;
10667;SDS011;5382;42.136;24.796;2023-07-31T03:26:18;10.23;;;3.83;;
10667;SDS011;5382;42.136;24.796;2023-07-31T03:28:44;4.20;;;3.58;;
10667;SDS011;5382;42.136;24.796;2023-07-31T03:31:11;4.82;;;4.43;;
10667;SDS011;5382;42.136;24.796;2023-07-31T03:33:38;6.00;;;4.85;;
10667;SDS011;5382;42.136;24.796;2023-07-31T03:36:05;5.55;;;4.20;;
10667;SDS011;5382;42.136;24.796;2023-07-31T03:38:33;4.88;;;4.40;;
10667;SDS011;5382;42.136;24.796;2023-07-31T03:41:01;6.05;;;4.68;;
10667;SDS011;5382;42.136;24.796;2023-07-31T03:43:28;7.85;;;5.10;;
10667;SDS011;5382;42.136;24.796;2023-07-31T03:45:54;7.25;;;5.72;;
10667;SDS011;5382;42.136;24.796;2023-07-31T03:48:21;9.05;;;5.45;;
10667;SDS011;5382;42.136;24.796;2023-07-31T03:50:48;7.15;;;5.50;;
10667;SDS011;5382;42.136;24.796;2023-07-31T03:53:15;9.70;;;5.85;;
10667;SDS011;5382;42.136;24.796;2023-07-31T03:55:42;8.18;;;5.80;;
10667;SDS011;5382;42.136;24.796;2023-07-31T03:58:10;7.28;;;5.63;;
10667;SDS011;5382;42.136;24.796;2023-07-31T04:00:36;8.52;;;5.95;;
10667;SDS011;5382;42.136;24.796;2023-07-31T04:03:03;7.13;;;6.40;;
10667;SDS011;5382;42.136;24.796;2023-07-31T04:05:31;6.72;;;5.60;;
10667;SDS011;5382;42.136;24.796;2023-07-31T04:07:58;7.57;;;5.53;;
10667;SDS011;5382;42.136;24.796;2023-07-31T04:10:25;5.82;;;5.15;;
10667;SDS011;5382;42.136;24.796;2023-07-31T04:12:52;6.10;;;5.50;;
10667;SDS011;5382;42.136;24.796;2023-07-31T04:15:20;6.55;;;5.32;;
10667;SDS011;5382;42.136;24.796;2023-07-31T04:17:47;5.85;;;5.05;;
10667;SDS011;5382;42.136;24.796;2023-07-31T04:20:14;8.38;;;5.32;;
10667;SDS011;5382;42.136;24.796;2023-07-31T04:22:40;9.60;;;5.65;;
10667;SDS011;5382;42.136;24.796;2023-07-31T04:25:07;5.45;;;4.88;;
10667;SDS011;5382;42.136;24.796;2023-07-31T04:27:35;5.00;;;4.45;;
10667;SDS011;5382;42.136;24.796;2023-07-31T04:30:01;5.50;;;5.00;;
10667;SDS011;5382;42.136;24.796;2023-07-31T04:32:30;6.05;;;4.78;;
10667;SDS011;5382;42.136;24.796;2023-07-31T04:34:57;7.53;;;4.68;;
10667;SDS011;5382;42.136;24.796;2023-07-31T04:37:23;4.82;;;4.43;;
10667;SDS011;5382;42.136;24.796;2023-07-31T04:39:50;6.50;;;5.25;;
10667;SDS011;5382;42.136;24.796;2023-07-31T04:42:17;6.28;;;4.68;;
10667;SDS011;5382;42.136;24.796;2023-07-31T04:44:44;7.90;;;5.10;;
10667;SDS011;5382;42.136;24.796;2023-07-31T04:47:12;6.00;;;4.65;;
10667;SDS011;5382;42.136;24.796;2023-07-31T04:49:40;5.93;;;4.45;;
10667;SDS011;5382;42.136;24.796;2023-07-31T04:52:07;5.03;;;4.32;;
10667;SDS011;5382;42.136;24.796;2023-07-31T04:54:34;6.20;;;4.95;;
10667;SDS011;5382;42.136;24.796;2023-07-31T04:57:00;5.97;;;4.68;;
10667;SDS011;5382;42.136;24.796;2023-07-31T04:59:27;7.72;;;4.75;;
10667;SDS011;5382;42.136;24.796;2023-07-31T05:01:54;5.97;;;5.07;;
10667;SDS011;5382;42.136;24.796;2023-07-31T05:04:21;6.72;;;4.82;;
10667;SDS011;5382;42.136;24.796;2023-07-31T05:06:49;5.38;;;4.88;;
10667;SDS011;5382;42.136;24.796;2023-07-31T05:09:16;8.48;;;4.57;;
10667;SDS011;5382;42.136;24.796;2023-07-31T05:11:43;8.05;;;4.93;;
10667;SDS011;5382;42.136;24.796;2023-07-31T05:14:10;4.78;;;4.30;;
10667;SDS011;5382;42.136;24.796;2023-07-31T05:16:37;5.93;;;4.60;;
10667;SDS011;5382;42.136;24.796;2023-07-31T05:19:03;5.22;;;4.70;;
10667;SDS011;5382;42.136;24.796;2023-07-31T05:21:30;7.03;;;5.00;;
10667;SDS011;5382;42.136;24.796;2023-07-31T05:23:58;5.40;;;4.90;;
10667;SDS011;5382;42.136;24.796;2023-07-31T05:26:25;5.07;;;4.47;;
10667;SDS011;5382;42.136;24.796;2023-07-31T05:28:52;6.32;;;4.68;;
10667;SDS011;5382;42.136;24.796;2023-07-31T05:31:19;5.85;;;4.68;;
10667;SDS011;5382;42.136;24.796;2023-07-31T05:33:47;6.80;;;5.07;;
10667;SDS011;5382;42.136;24.796;2023-07-31T05:36:15;6.43;;;5.20;;
10667;SDS011;5382;42.136;24.796;2023-07-31T05:38:42;6.57;;;5.25;;
10667;SDS011;5382;42.136;24.796;2023-07-31T05:41:11;7.00;;;5.70;;
10667;SDS011;5382;42.136;24.796;2023-07-31T05:43:38;7.22;;;5.10;;
10667;SDS011;5382;42.136;24.796;2023-07-31T05:46:05;5.78;;;4.45;;
10667;SDS011;5382;42.136;24.796;2023-07-31T05:48:32;5.55;;;4.75;;
10667;SDS011;5382;42.136;24.796;2023-07-31T05:50:59;6.38;;;4.45;;
10667;SDS011;5382;42.136;24.796;2023-07-31T05:53:28;7.03;;;4.25;;
10667;SDS011;5382;42.136;24.796;2023-07-31T05:55:55;5.47;;;4.70;;
10667;SDS011;5382;42.136;24.796;2023-07-31T05:58:23;8.48;;;5.03;;
10667;SDS011;5382;42.136;24.796;2023-07-31T06:00:50;8.57;;;5.43;;
10667;SDS011;5382;42.136;24.796;2023-07-31T06:03:17;6.85;;;4.75;;
10667;SDS011;5382;42.136;24.796;2023-07-31T06:05:43;6.15;;;4.85;;
10667;SDS011;5382;42.136;24.796;2023-07-31T06:08:10;5.20;;;4.70;;
10667;SDS011;5382;42.136;24.796;2023-07-31T06:10:37;7.03;;;4.82;;
10667;SDS011;5382;42.136;24.796;2023-07-31T06:13:04;9.80;;;5.57;;
10667;SDS011;5382;42.136;24.796;2023-07-31T06:15:32;6.68;;;5.97;;
10667;SDS011;5382;42.136;24.796;2023-07-31T06:17:59;6.03;;;5.43;;
10667;SDS011;5382;42.136;24.796;2023-07-31T06:20:27;6.85;;;5.97;;
10667;SDS011;5382;42.136;24.796;2023-07-31T06:22:54;11.88;;;6.53;;
10667;SDS011;5382;42.136;24.796;2023-07-31T06:25:21;8.98;;;7.07;;
10667;SDS011;5382;42.136;24.796;2023-07-31T06:27:47;8.68;;;6.68;;
10667;SDS011;5382;42.136;24.796;2023-07-31T06:30:14;7.50;;;6.80;;
10667;SDS011;5382;42.136;24.796;2023-07-31T06:32:43;7.30;;;6.43;;
10667;SDS011;5382;42.136;24.796;2023-07-31T06:35:09;8.60;;;6.95;;
10667;SDS011;5382;42.136;24.796;2023-07-31T06:37:36;22.85;;;15.05;;
10667;SDS011;5382;42.136;24.796;2023-07-31T06:40:05;10.05;;;6.88;;
10667;SDS011;5382;42.136;24.796;2023-07-31T06:42:34;36.60;;;27.55;;
10667;SDS011;5382;42.136;24.796;2023-07-31T06:45:01;8.45;;;7.60;;
10667;SDS011;5382;42.136;24.796;2023-07-31T06:47:28;8.40;;;7.60;;
10667;SDS011;5382;42.136;24.796;2023-07-31T06:49:56;8.77;;;7.88;;
10667;SDS011;5382;42.136;24.796;2023-07-31T06:52:23;9.02;;;7.85;;
10667;SDS011;5382;42.136;24.796;2023-07-31T06:55:00;12.45;;;8.20;;
10667;SDS011;5382;42.136;24.796;2023-07-31T06:57:28;8.88;;;8.05;;
10667;SDS011;5382;42.136;24.796;2023-07-31T06:59:55;9.35;;;8.15;;
10667;SDS011;5382;42.136;24.796;2023-07-31T07:02:22;10.07;;;8.50;;
10667;SDS011;5382;42.136;24.796;2023-07-31T07:04:49;13.60;;;12.25;;
10667;SDS011;5382;42.136;24.796;2023-07-31T07:07:17;11.15;;;9.60;;
10667;SDS011;5382;42.136;24.796;2023-07-31T07:09:44;9.43;;;8.52;;
10667;SDS011;5382;42.136;24.796;2023-07-31T07:12:11;9.50;;;8.60;;
10667;SDS011;5382;42.136;24.796;2023-07-31T07:14:38;9.90;;;8.90;;
10667;SDS011;5382;42.136;24.796;2023-07-31T07:17:05;9.82;;;8.88;;
10667;SDS011;5382;42.136;24.796;2023-07-31T07:19:32;9.15;;;8.45;;
10667;SDS011;5382;42.136;24.796;2023-07-31T07:21:59;9.70;;;8.73;;
10667;SDS011;5382;42.136;24.796;2023-07-31T07:24:28;9.52;;;8.52;;
10667;SDS011;5382;42.136;24.796;2023-07-31T07:26:55;10.07;;;9.27;;
10667;SDS011;5382;42.136;24.796;2023-07-31T07:29:22;11.20;;;9.35;;
10667;SDS011;5382;42.136;24.796;2023-07-31T07:31:50;10.73;;;9.73;;
10667;SDS011;5382;42.136;24.796;2023-07-31T07:34:17;13.73;;;9.00;;
10667;SDS011;5382;42.136;24.796;2023-07-31T07:36:44;10.18;;;9.27;;
10667;SDS011;5382;42.136;24.796;2023-07-31T07:39:11;10.27;;;9.38;;
10667;SDS011;5382;42.136;24.796;2023-07-31T07:41:39;11.02;;;9.68;;
10667;SDS011;5382;42.136;24.796;2023-07-31T07:44:06;11.23;;;10.13;;
10667;SDS011;5382;42.136;24.796;2023-07-31T07:46:34;10.32;;;9.45;;
10667;SDS011;5382;42.136;24.796;2023-07-31T07:49:00;10.52;;;9.40;;
10667;SDS011;5382;42.136;24.796;2023-07-31T07:51:27;11.00;;;10.00;;
10667;SDS011;5382;42.136;24.796;2023-07-31T07:53:55;10.85;;;9.85;;
10667;SDS011;5382;42.136;24.796;2023-07-31T07:56:28;11.77;;;9.95;;
10667;SDS011;5382;42.136;24.796;2023-07-31T07:58:59;13.55;;;12.25;;
10667;SDS011;5382;42.136;24.796;2023-07-31T08:01:26;11.77;;;10.63;;
10667;SDS011;5382;42.136;24.796;2023-07-31T08:03:53;11.18;;;10.18;;
10667;SDS011;5382;42.136;24.796;2023-07-31T08:06:20;10.52;;;9.63;;
10667;SDS011;5382;42.136;24.796;2023-07-31T08:08:47;11.57;;;10.48;;
10667;SDS011;5382;42.136;24.796;2023-07-31T08:11:15;10.68;;;9.63;;
10667;SDS011;5382;42.136;24.796;2023-07-31T08:13:42;10.25;;;9.15;;
10667;SDS011;5382;42.136;24.796;2023-07-31T08:16:11;10.50;;;9.50;;
10667;SDS011;5382;42.136;24.796;2023-07-31T08:18:38;11.10;;;8.60;;
10667;SDS011;5382;42.136;24.796;2023-07-31T08:21:07;10.52;;;9.73;;
10667;SDS011;5382;42.136;24.796;2023-07-31T08:23:34;9.80;;;8.88;;
10667;SDS011;5382;42.136;24.796;2023-07-31T08:26:01;10.25;;;9.38;;
10667;SDS011;5382;42.136;24.796;2023-07-31T08:28:28;9.13;;;8.32;;
10667;SDS011;5382;42.136;24.796;2023-07-31T08:30:55;8.18;;;7.47;;
10667;SDS011;5382;42.136;24.796;2023-07-31T08:33:24;7.90;;;7.10;;
10667;SDS011;5382;42.136;24.796;2023-07-31T08:35:51;7.60;;;6.90;;
10667;SDS011;5382;42.136;24.796;2023-07-31T08:38:18;8.25;;;7.45;;
10667;SDS011;5382;42.136;24.796;2023-07-31T08:40:44;8.48;;;7.68;;
10667;SDS011;5382;42.136;24.796;2023-07-31T08:43:11;8.02;;;7.32;;
10667;SDS011;5382;42.136;24.796;2023-07-31T08:45:38;10.63;;;9.30;;
10667;SDS011;5382;42.136;24.796;2023-07-31T08:48:08;12.30;;;10.50;;
10667;SDS011;5382;42.136;24.796;2023-07-31T08:50:36;11.57;;;10.57;;
10667;SDS011;5382;42.136;24.796;2023-07-31T08:53:04;10.82;;;9.90;;
10667;SDS011;5382;42.136;24.796;2023-07-31T08:55:32;10.60;;;9.70;;
10667;SDS011;5382;42.136;24.796;2023-07-31T08:57:59;11.60;;;10.18;;
10667;SDS011;5382;42.136;24.796;2023-07-31T09:00:29;10.85;;;9.80;;
10667;SDS011;5382;42.136;24.796;2023-07-31T09:02:59;10.25;;;9.25;;
10667;SDS011;5382;42.136;24.796;2023-07-31T09:05:28;9.63;;;8.68;;
10667;SDS011;5382;42.136;24.796;2023-07-31T09:07:58;11.98;;;10.73;;
10667;SDS011;5382;42.136;24.796;2023-07-31T09:10:25;11.43;;;10.23;;
10667;SDS011;5382;42.136;24.796;2023-07-31T09:12:52;10.82;;;9.88;;
10667;SDS011;5382;42.136;24.796;2023-07-31T09:15:19;9.52;;;8.63;;
10667;SDS011;5382;42.136;24.796;2023-07-31T09:17:46;10.23;;;9.32;;
10667;SDS011;5382;42.136;24.796;2023-07-31T09:20:14;9.55;;;8.75;;
10667;SDS011;5382;42.136;24.796;2023-07-31T09:22:42;9.93;;;8.93;;
10667;SDS011;5382;42.136;24.796;2023-07-31T09:25:18;9.43;;;8.52;;
10667;SDS011;5382;42.136;24.796;2023-07-31T09:27:46;9.35;;;8.45;;
10667;SDS011;5382;42.136;24.796;2023-07-31T09:30:14;9.38;;;8.48;;
10667;SDS011;5382;42.136;24.796;2023-07-31T09:32:42;9.90;;;8.90;;
10667;SDS011;5382;42.136;24.796;2023-07-31T09:35:19;9.68;;;8.70;;
10667;SDS011;5382;42.136;24.796;2023-07-31T09:37:50;10.18;;;8.93;;
10667;SDS011;5382;42.136;24.796;2023-07-31T09:40:29;9.98;;;9.13;;
10667;SDS011;5382;42.136;24.796;2023-07-31T09:42:58;9.25;;;8.55;;
10667;SDS011;5382;42.136;24.796;2023-07-31T09:45:26;9.48;;;8.68;;
10667;SDS011;5382;42.136;24.796;2023-07-31T09:47:53;10.18;;;9.27;;
10667;SDS011;5382;42.136;24.796;2023-07-31T09:50:20;10.85;;;9.90;;
10667;SDS011;5382;42.136;24.796;2023-07-31T09:52:48;10.77;;;9.88;;
10667;SDS011;5382;42.136;24.796;2023-07-31T09:55:15;10.57;;;9.52;;
10667;SDS011;5382;42.136;24.796;2023-07-31T09:57:44;10.85;;;9.85;;
10667;SDS011;5382;42.136;24.796;2023-07-31T10:00:13;9.43;;;8.63;;
10667;SDS011;5382;42.136;24.796;2023-07-31T10:02:41;8.75;;;7.97;;
10667;SDS011;5382;42.136;24.796;2023-07-31T10:05:12;8.82;;;8.13;;
10667;SDS011;5382;42.136;24.796;2023-07-31T10:07:41;8.70;;;7.97;;
10667;SDS011;5382;42.136;24.796;2023-07-31T10:10:09;9.23;;;8.43;;
10667;SDS011;5382;42.136;24.796;2023-07-31T10:12:37;9.07;;;8.15;;
10667;SDS011;5382;42.136;24.796;2023-07-31T10:15:06;7.35;;;6.85;;
10667;SDS011;5382;42.136;24.796;2023-07-31T10:17:34;7.65;;;6.95;;
10667;SDS011;5382;42.136;24.796;2023-07-31T10:20:03;7.68;;;7.07;;
10667;SDS011;5382;42.136;24.796;2023-07-31T10:22:32;7.80;;;7.20;;
10667;SDS011;5382;42.136;24.796;2023-07-31T10:25:00;7.70;;;7.10;;
10667;SDS011;5382;42.136;24.796;2023-07-31T10:27:27;8.07;;;7.43;;
10667;SDS011;5382;42.136;24.796;2023-07-31T10:29:55;8.75;;;8.05;;
10667;SDS011;5382;42.136;24.796;2023-07-31T10:32:25;8.32;;;7.63;;
10667;SDS011;5382;42.136;24.796;2023-07-31T10:34:53;8.93;;;8.23;;
10667;SDS011;5382;42.136;24.796;2023-07-31T10:37:21;8.80;;;8.05;;
10667;SDS011;5382;42.136;24.796;2023-07-31T10:39:56;8.77;;;8.02;;
10667;SDS011;5382;42.136;24.796;2023-07-31T10:42:28;8.68;;;7.70;;
10667;SDS011;5382;42.136;24.796;2023-07-31T10:45:00;9.25;;;8.45;;
10667;SDS011;5382;42.136;24.796;2023-07-31T10:47:30;10.10;;;8.68;;
10667;SDS011;5382;42.136;24.796;2023-07-31T10:50:16;9.90;;;8.95;;
10667;SDS011;5382;42.136;24.796;2023-07-31T10:52:48;9.05;;;8.25;;
10667;SDS011;5382;42.136;24.796;2023-07-31T10:55:24;8.85;;;8.15;;
10667;SDS011;5382;42.136;24.796;2023-07-31T10:57:53;10.10;;;9.10;;
10667;SDS011;5382;42.136;24.796;2023-07-31T11:00:21;10.10;;;9.10;;
10667;SDS011;5382;42.136;24.796;2023-07-31T11:02:59;10.60;;;9.70;;
10667;SDS011;5382;42.136;24.796;2023-07-31T11:08:19;9.30;;;8.45;;
10667;SDS011;5382;42.136;24.796;2023-07-31T11:10:47;11.13;;;8.77;;
10667;SDS011;5382;42.136;24.796;2023-07-31T11:13:15;9.68;;;8.90;;
10667;SDS011;5382;42.136;24.796;2023-07-31T11:15:42;9.27;;;8.48;;
10667;SDS011;5382;42.136;24.796;2023-07-31T11:18:10;9.40;;;8.60;;
10667;SDS011;5382;42.136;24.796;2023-07-31T11:20:37;9.52;;;8.65;;
10667;SDS011;5382;42.136;24.796;2023-07-31T11:23:06;10.02;;;9.00;;
10667;SDS011;5382;42.136;24.796;2023-07-31T11:25:34;8.48;;;6.80;;
10667;SDS011;5382;42.136;24.796;2023-07-31T11:28:03;8.57;;;6.35;;
10667;SDS011;5382;42.136;24.796;2023-07-31T11:30:31;8.88;;;6.13;;
10667;SDS011;5382;42.136;24.796;2023-07-31T11:32:59;9.80;;;6.47;;
10667;SDS011;5382;42.136;24.796;2023-07-31T11:35:30;6.88;;;6.28;;
10667;SDS011;5382;42.136;24.796;2023-07-31T11:37:57;9.88;;;6.07;;
10667;SDS011;5382;42.136;24.796;2023-07-31T11:40:24;6.75;;;6.05;;
10667;SDS011;5382;42.136;24.796;2023-07-31T11:42:54;7.65;;;5.68;;
10667;SDS011;5382;42.136;24.796;2023-07-31T11:45:24;5.88;;;5.35;;
10667;SDS011;5382;42.136;24.796;2023-07-31T11:47:52;5.70;;;5.10;;
10667;SDS011;5382;42.136;24.796;2023-07-31T11:50:20;5.45;;;4.95;;
10667;SDS011;5382;42.136;24.796;2023-07-31T11:52:51;6.88;;;6.18;;
10667;SDS011;5382;42.136;24.796;2023-07-31T11:55:22;8.00;;;6.07;;
10667;SDS011;5382;42.136;24.796;2023-07-31T11:57:50;7.80;;;6.15;;
10667;SDS011;5382;42.136;24.796;2023-07-31T12:00:18;6.65;;;6.05;;
10667;SDS011;5382;42.136;24.796;2023-07-31T12:02:45;6.00;;;5.60;;
10667;SDS011;5382;42.136;24.796;2023-07-31T12:05:13;6.75;;;6.20;;
10667;SDS011;5382;42.136;24.796;2023-07-31T12:07:44;6.28;;;5.78;;
10667;SDS011;5382;42.136;24.796;2023-07-31T12:10:13;5.72;;;5.22;;
10667;SDS011;5382;42.136;24.796;2023-07-31T12:12:55;7.07;;;6.43;;
10667;SDS011;5382;42.136;24.796;2023-07-31T12:15:28;5.63;;;5.13;;
10667;SDS011;5382;42.136;24.796;2023-07-31T12:18:06;6.68;;;5.97;;
10667;SDS011;5382;42.136;24.796;2023-07-31T12:20:34;6.38;;;5.78;;
10667;SDS011;5382;42.136;24.796;2023-07-31T12:23:01;9.57;;;6.70;;
10667;SDS011;5382;42.136;24.796;2023-07-31T12:25:31;8.50;;;6.20;;
10667;SDS011;5382;42.136;24.796;2023-07-31T12:28:03;6.47;;;5.97;;
10667;SDS011;5382;42.136;24.796;2023-07-31T12:30:32;6.32;;;5.78;;
10667;SDS011;5382;42.136;24.796;2023-07-31T12:33:02;6.75;;;6.13;;
10667;SDS011;5382;42.136;24.796;2023-07-31T12:35:34;6.95;;;6.43;;
10667;SDS011;5382;42.136;24.796;2023-07-31T12:38:02;7.18;;;6.57;;
10667;SDS011;5382;42.136;24.796;2023-07-31T12:40:30;8.23;;;5.97;;
10667;SDS011;5382;42.136;24.796;2023-07-31T12:42:57;6.10;;;5.50;;
10667;SDS011;5382;42.136;24.796;2023-07-31T12:45:24;7.50;;;5.95;;
10667;SDS011;5382;42.136;24.796;2023-07-31T12:47:50;5.95;;;4.75;;
10667;SDS011;5382;42.136;24.796;2023-07-31T12:50:17;6.15;;;5.65;;
10667;SDS011;5382;42.136;24.796;2023-07-31T12:52:45;7.72;;;5.88;;
10667;SDS011;5382;42.136;24.796;2023-07-31T12:55:11;6.75;;;6.13;;
10667;SDS011;5382;42.136;24.796;2023-07-31T12:57:40;6.30;;;5.70;;
10667;SDS011;5382;42.136;24.796;2023-07-31T13:00:07;9.18;;;5.93;;
10667;SDS011;5382;42.136;24.796;2023-07-31T13:02:35;11.10;;;7.05;;
10667;SDS011;5382;42.136;24.796;2023-07-31T13:05:02;6.90;;;5.97;;
10667;SDS011;5382;42.136;24.796;2023-07-31T13:07:29;5.88;;;5.35;;
10667;SDS011;5382;42.136;24.796;2023-07-31T13:09:56;6.80;;;5.63;;
10667;SDS011;5382;42.136;24.796;2023-07-31T13:12:23;6.57;;;5.93;;
10667;SDS011;5382;42.136;24.796;2023-07-31T13:14:51;9.05;;;5.93;;
10667;SDS011;5382;42.136;24.796;2023-07-31T13:17:18;6.93;;;5.80;;
10667;SDS011;5382;42.136;24.796;2023-07-31T13:19:45;6.28;;;5.78;;
10667;SDS011;5382;42.136;24.796;2023-07-31T13:22:12;6.90;;;5.82;;
10667;SDS011;5382;42.136;24.796;2023-07-31T13:24:38;6.72;;;6.03;;
10667;SDS011;5382;42.136;24.796;2023-07-31T13:27:05;9.15;;;5.72;;
10667;SDS011;5382;42.136;24.796;2023-07-31T13:29:32;9.27;;;5.75;;
10667;SDS011;5382;42.136;24.796;2023-07-31T13:32:00;7.00;;;5.20;;
10667;SDS011;5382;42.136;24.796;2023-07-31T13:34:27;5.70;;;5.20;;
10667;SDS011;5382;42.136;24.796;2023-07-31T13:36:54;5.93;;;5.10;;
10667;SDS011;5382;42.136;24.796;2023-07-31T13:39:21;5.75;;;5.25;;
10667;SDS011;5382;42.136;24.796;2023-07-31T13:41:48;6.50;;;5.00;;
10667;SDS011;5382;42.136;24.796;2023-07-31T13:44:15;5.75;;;5.25;;
10667;SDS011;5382;42.136;24.796;2023-07-31T13:46:42;5.18;;;4.78;;
10667;SDS011;5382;42.136;24.796;2023-07-31T13:49:10;8.88;;;5.22;;
10667;SDS011;5382;42.136;24.796;2023-07-31T13:51:37;5.68;;;4.80;;
10667;SDS011;5382;42.136;24.796;2023-07-31T13:54:04;7.70;;;5.40;;
10667;SDS011;5382;42.136;24.796;2023-07-31T13:56:32;5.88;;;5.28;;
10667;SDS011;5382;42.136;24.796;2023-07-31T13:58:59;5.45;;;4.97;;
10667;SDS011;5382;42.136;24.796;2023-07-31T14:01:27;9.30;;;4.88;;
10667;SDS011;5382;42.136;24.796;2023-07-31T14:03:54;9.40;;;5.20;;
10667;SDS011;5382;42.136;24.796;2023-07-31T14:06:22;7.75;;;5.57;;
10667;SDS011;5382;42.136;24.796;2023-07-31T14:08:49;7.78;;;5.30;;
10667;SDS011;5382;42.136;24.796;2023-07-31T14:11:16;9.32;;;5.75;;
10667;SDS011;5382;42.136;24.796;2023-07-31T14:13:42;5.35;;;4.85;;
10667;SDS011;5382;42.136;24.796;2023-07-31T14:16:09;11.00;;;5.88;;
10667;SDS011;5382;42.136;24.796;2023-07-31T14:18:36;5.75;;;5.13;;
10667;SDS011;5382;42.136;24.796;2023-07-31T14:21:03;10.43;;;5.95;;
10667;SDS011;5382;42.136;24.796;2023-07-31T14:23:31;8.02;;;5.15;;
10667;SDS011;5382;42.136;24.796;2023-07-31T14:25:58;5.80;;;4.93;;
10667;SDS011;5382;42.136;24.796;2023-07-31T14:28:24;6.65;;;4.65;;
10667;SDS011;5382;42.136;24.796;2023-07-31T14:30:51;5.25;;;4.75;;
10667;SDS011;5382;42.136;24.796;2023-07-31T14:33:18;5.18;;;4.75;;
10667;SDS011;5382;42.136;24.796;2023-07-31T14:35:45;7.65;;;5.13;;
10667;SDS011;5382;42.136;24.796;2023-07-31T14:38:12;6.93;;;4.97;;
10667;SDS011;5382;42.136;24.796;2023-07-31T14:40:40;9.25;;;5.32;;
10667;SDS011;5382;42.136;24.796;2023-07-31T14:43:07;7.20;;;5.35;;
10667;SDS011;5382;42.136;24.796;2023-07-31T14:45:34;8.07;;;5.00;;
10667;SDS011;5382;42.136;24.796;2023-07-31T14:48:01;7.80;;;5.07;;
10667;SDS011;5382;42.136;24.796;2023-07-31T14:50:28;5.28;;;4.80;;
10667;SDS011;5382;42.136;24.796;2023-07-31T14:52:55;9.30;;;5.15;;
10667;SDS011;5382;42.136;24.796;2023-07-31T14:55:21;7.45;;;5.43;;